sensor_id;sensor_type;location;lat;lon;timestamp;P1;durP1;ratioP1;P2;durP2;ratioP2
75112;SDS011;63692;47.338;8.520;2024-02-16T06:47:54;13.77;;;5.88;;
75112;SDS011;63692;47.338;8.520;2024-02-16T06:50:21;13.60;;;5.65;;
75112;SDS011;63692;47.338;8.520;2024-02-16T06:52:46;13.45;;;5.30;;
75112;SDS011;63692;47.338;8.520;2024-02-16T06:55:12;16.70;;;5.25;;
75112;SDS011;63692;47.338;8.520;2024-02-16T06:57:38;14.63;;;5.55;;
75112;SDS011;63692;47.338;8.520;2024-02-16T07:00:03;18.95;;;6.47;;
75112;SDS011;63692;47.338;8.520;2024-02-16T07:02:30;14.40;;;6.25;;
75112;SDS011;63692;47.338;8.520;2024-02-16T07:04:56;12.90;;;5.43;;
75112;SDS011;63692;47.338;8.520;2024-02-16T07:07:21;10.57;;;5.25;;
75112;SDS011;63692;47.338;8.520;2024-02-16T07:09:47;11.73;;;5.63;;
75112;SDS011;63692;47.338;8.520;2024-02-16T07:12:12;13.93;;;5.25;;
75112;SDS011;63692;47.338;8.520;2024-02-16T07:14:38;15.27;;;5.28;;
75112;SDS011;63692;47.338;8.520;2024-02-16T07:17:04;13.05;;;6.07;;
75112;SDS011;63692;47.338;8.520;2024-02-16T07:19:34;10.90;;;5.28;;
75112;SDS011;63692;47.338;8.520;2024-02-16T07:22:01;10.85;;;6.03;;
75112;SDS011;63692;47.338;8.520;2024-02-16T07:27:02;15.23;;;5.50;;
75112;SDS011;63692;47.338;8.520;2024-02-16T07:29:27;13.57;;;5.50;;
75112;SDS011;63692;47.338;8.520;2024-02-16T07:31:53;11.77;;;5.72;;
75112;SDS011;63692;47.338;8.520;2024-02-16T07:34:19;12.50;;;6.28;;
75112;SDS011;63692;47.338;8.520;2024-02-16T07:36:45;13.77;;;5.68;;
75112;SDS011;63692;47.338;8.520;2024-02-16T07:39:10;11.70;;;5.40;;
75112;SDS011;63692;47.338;8.520;2024-02-16T07:41:37;15.82;;;5.72;;
75112;SDS011;63692;47.338;8.520;2024-02-16T07:44:03;11.73;;;5.72;;
75112;SDS011;63692;47.338;8.520;2024-02-16T07:46:29;13.40;;;5.85;;
75112;SDS011;63692;47.338;8.520;2024-02-16T07:48:55;11.30;;;5.78;;
75112;SDS011;63692;47.338;8.520;2024-02-16T07:51:20;13.27;;;5.90;;
75112;SDS011;63692;47.338;8.520;2024-02-16T07:53:46;18.85;;;6.57;;
75112;SDS011;63692;47.338;8.520;2024-02-16T07:56:12;20.38;;;6.72;;
75112;SDS011;63692;47.338;8.520;2024-02-16T07:58:38;25.42;;;7.43;;
75112;SDS011;63692;47.338;8.520;2024-02-16T08:01:07;22.60;;;7.38;;
75112;SDS011;63692;47.338;8.520;2024-02-16T08:03:32;20.60;;;6.63;;
75112;SDS011;63692;47.338;8.520;2024-02-16T08:05:58;18.92;;;7.07;;
75112;SDS011;63692;47.338;8.520;2024-02-16T08:15:57;16.92;;;6.28;;
75112;SDS011;63692;47.338;8.520;2024-02-16T08:18:23;15.25;;;6.72;;
75112;SDS011;63692;47.338;8.520;2024-02-16T08:20:48;14.98;;;6.63;;
75112;SDS011;63692;47.338;8.520;2024-02-16T08:23:14;10.88;;;6.57;;
75112;SDS011;63692;47.338;8.520;2024-02-16T08:25:40;15.68;;;6.85;;
75112;SDS011;63692;47.338;8.520;2024-02-16T08:28:06;15.30;;;6.38;;
75112;SDS011;63692;47.338;8.520;2024-02-16T08:30:31;15.77;;;6.13;;
75112;SDS011;63692;47.338;8.520;2024-02-16T08:32:58;11.95;;;6.20;;
75112;SDS011;63692;47.338;8.520;2024-02-16T08:35:25;13.48;;;5.30;;
75112;SDS011;63692;47.338;8.520;2024-02-16T08:37:50;10.90;;;6.38;;
75112;SDS011;63692;47.338;8.520;2024-02-16T08:40:16;13.30;;;5.70;;
75112;SDS011;63692;47.338;8.520;2024-02-16T08:42:41;13.07;;;6.05;;
75112;SDS011;63692;47.338;8.520;2024-02-16T08:45:07;10.07;;;5.78;;
75112;SDS011;63692;47.338;8.520;2024-02-16T08:47:34;14.13;;;6.28;;
75112;SDS011;63692;47.338;8.520;2024-02-16T08:49:59;17.38;;;7.43;;
75112;SDS011;63692;47.338;8.520;2024-02-16T08:52:25;12.80;;;6.55;;
75112;SDS011;63692;47.338;8.520;2024-02-16T08:54:51;11.77;;;6.45;;
75112;SDS011;63692;47.338;8.520;2024-02-16T08:57:17;12.40;;;6.45;;
75112;SDS011;63692;47.338;8.520;2024-02-16T08:59:42;12.75;;;6.55;;
75112;SDS011;63692;47.338;8.520;2024-02-16T09:02:09;10.88;;;5.50;;
75112;SDS011;63692;47.338;8.520;2024-02-16T09:04:35;9.95;;;5.75;;
75112;SDS011;63692;47.338;8.520;2024-02-16T09:07:01;11.88;;;5.35;;
75112;SDS011;63692;47.338;8.520;2024-02-16T09:09:27;13.85;;;5.60;;
75112;SDS011;63692;47.338;8.520;2024-02-16T09:11:53;11.07;;;4.63;;
75112;SDS011;63692;47.338;8.520;2024-02-16T09:14:19;10.23;;;4.88;;
75112;SDS011;63692;47.338;8.520;2024-02-16T09:16:44;12.30;;;4.97;;
75112;SDS011;63692;47.338;8.520;2024-02-16T09:19:13;11.23;;;4.93;;
75112;SDS011;63692;47.338;8.520;2024-02-16T09:21:38;8.95;;;4.60;;
75112;SDS011;63692;47.338;8.520;2024-02-16T09:24:04;9.90;;;5.03;;
75112;SDS011;63692;47.338;8.520;2024-02-16T09:26:35;11.63;;;4.53;;
75112;SDS011;63692;47.338;8.520;2024-02-16T09:29:01;7.15;;;3.92;;
75112;SDS011;63692;47.338;8.520;2024-02-16T09:31:27;9.93;;;4.75;;
75112;SDS011;63692;47.338;8.520;2024-02-16T09:33:52;9.77;;;4.22;;
75112;SDS011;63692;47.338;8.520;2024-02-16T09:36:18;8.45;;;4.35;;
75112;SDS011;63692;47.338;8.520;2024-02-16T09:38:44;7.50;;;4.20;;
75112;SDS011;63692;47.338;8.520;2024-02-16T09:41:10;10.43;;;5.20;;
75112;SDS011;63692;47.338;8.520;2024-02-16T09:43:36;10.35;;;4.47;;
75112;SDS011;63692;47.338;8.520;2024-02-16T09:46:04;11.20;;;4.63;;
75112;SDS011;63692;47.338;8.520;2024-02-16T09:48:30;10.32;;;4.97;;
75112;SDS011;63692;47.338;8.520;2024-02-16T09:50:57;8.23;;;4.05;;
75112;SDS011;63692;47.338;8.520;2024-02-16T09:53:25;7.60;;;4.28;;
75112;SDS011;63692;47.338;8.520;2024-02-16T09:55:51;9.25;;;4.63;;
75112;SDS011;63692;47.338;8.520;2024-02-16T09:58:18;9.38;;;4.55;;
75112;SDS011;63692;47.338;8.520;2024-02-16T10:00:50;14.10;;;6.45;;
75112;SDS011;63692;47.338;8.520;2024-02-16T10:06:09;17.77;;;5.30;;
75112;SDS011;63692;47.338;8.520;2024-02-16T10:09:10;12.53;;;5.60;;
75112;SDS011;63692;47.338;8.520;2024-02-16T10:11:31;11.27;;;5.30;;
75112;SDS011;63692;47.338;8.520;2024-02-16T10:13:57;8.57;;;4.95;;
75112;SDS011;63692;47.338;8.520;2024-02-16T10:16:28;9.10;;;4.65;;
75112;SDS011;63692;47.338;8.520;2024-02-16T10:18:55;10.07;;;4.82;;
75112;SDS011;63692;47.338;8.520;2024-02-16T10:21:25;13.77;;;4.97;;
75112;SDS011;63692;47.338;8.520;2024-02-16T10:24:08;11.07;;;4.60;;
75112;SDS011;63692;47.338;8.520;2024-02-16T10:26:35;10.32;;;4.38;;
75112;SDS011;63692;47.338;8.520;2024-02-16T10:29:04;11.10;;;4.20;;
75112;SDS011;63692;47.338;8.520;2024-02-16T10:31:31;10.10;;;4.20;;
75112;SDS011;63692;47.338;8.520;2024-02-16T10:34:01;7.85;;;4.43;;
75112;SDS011;63692;47.338;8.520;2024-02-16T10:36:32;14.18;;;4.75;;
75112;SDS011;63692;47.338;8.520;2024-02-16T10:38:59;9.50;;;4.32;;
75112;SDS011;63692;47.338;8.520;2024-02-16T10:41:29;13.65;;;4.85;;
75112;SDS011;63692;47.338;8.520;2024-02-16T10:43:59;11.32;;;2.78;;
75112;SDS011;63692;47.338;8.520;2024-02-16T10:46:27;9.30;;;3.17;;
75112;SDS011;63692;47.338;8.520;2024-02-16T10:48:53;12.07;;;3.67;;
75112;SDS011;63692;47.338;8.520;2024-02-16T10:58:59;12.50;;;3.55;;
75112;SDS011;63692;47.338;8.520;2024-02-16T11:01:27;10.43;;;3.22;;
75112;SDS011;63692;47.338;8.520;2024-02-16T11:04:06;5.50;;;3.20;;
75112;SDS011;63692;47.338;8.520;2024-02-16T11:06:48;9.02;;;3.38;;
75112;SDS011;63692;47.338;8.520;2024-02-16T11:11:51;6.60;;;3.65;;
75112;SDS011;63692;47.338;8.520;2024-02-16T11:16:47;8.73;;;3.80;;
75112;SDS011;63692;47.338;8.520;2024-02-16T11:19:13;11.70;;;5.32;;
75112;SDS011;63692;47.338;8.520;2024-02-16T11:21:54;12.23;;;5.03;;
75112;SDS011;63692;47.338;8.520;2024-02-16T11:24:30;13.65;;;4.93;;
75112;SDS011;63692;47.338;8.520;2024-02-16T11:26:57;14.55;;;5.10;;
75112;SDS011;63692;47.338;8.520;2024-02-16T11:29:23;11.35;;;4.30;;
75112;SDS011;63692;47.338;8.520;2024-02-16T11:31:50;12.65;;;5.10;;
75112;SDS011;63692;47.338;8.520;2024-02-16T11:34:23;9.80;;;4.68;;
75112;SDS011;63692;47.338;8.520;2024-02-16T11:36:51;11.55;;;4.82;;
75112;SDS011;63692;47.338;8.520;2024-02-16T11:39:21;7.78;;;4.60;;
75112;SDS011;63692;47.338;8.520;2024-02-16T11:41:47;11.90;;;5.03;;
75112;SDS011;63692;47.338;8.520;2024-02-16T11:44:13;11.35;;;4.82;;
75112;SDS011;63692;47.338;8.520;2024-02-16T11:46:42;18.98;;;5.30;;
75112;SDS011;63692;47.338;8.520;2024-02-16T11:49:08;15.93;;;4.55;;
75112;SDS011;63692;47.338;8.520;2024-02-16T11:51:35;13.48;;;3.70;;
75112;SDS011;63692;47.338;8.520;2024-02-16T11:54:00;7.47;;;3.05;;
75112;SDS011;63692;47.338;8.520;2024-02-16T11:56:26;9.80;;;3.05;;
75112;SDS011;63692;47.338;8.520;2024-02-16T11:58:52;13.27;;;3.92;;
75112;SDS011;63692;47.338;8.520;2024-02-16T12:01:18;11.85;;;3.22;;
75112;SDS011;63692;47.338;8.520;2024-02-16T12:03:44;10.82;;;3.53;;
75112;SDS011;63692;47.338;8.520;2024-02-16T12:06:18;7.35;;;3.00;;
75112;SDS011;63692;47.338;8.520;2024-02-16T12:08:46;5.93;;;3.03;;
75112;SDS011;63692;47.338;8.520;2024-02-16T12:11:12;7.45;;;3.28;;
75112;SDS011;63692;47.338;8.520;2024-02-16T12:13:39;5.55;;;2.72;;
75112;SDS011;63692;47.338;8.520;2024-02-16T12:16:05;7.85;;;2.85;;
75112;SDS011;63692;47.338;8.520;2024-02-16T12:21:02;5.38;;;2.88;;
75112;SDS011;63692;47.338;8.520;2024-02-16T12:23:30;6.38;;;2.80;;
75112;SDS011;63692;47.338;8.520;2024-02-16T12:25:57;6.38;;;3.08;;
75112;SDS011;63692;47.338;8.520;2024-02-16T12:28:26;7.90;;;2.80;;
75112;SDS011;63692;47.338;8.520;2024-02-16T12:30:53;8.45;;;2.70;;
75112;SDS011;63692;47.338;8.520;2024-02-16T12:33:22;8.05;;;3.55;;
75112;SDS011;63692;47.338;8.520;2024-02-16T12:35:48;9.75;;;3.15;;
75112;SDS011;63692;47.338;8.520;2024-02-16T12:38:13;7.95;;;3.22;;
75112;SDS011;63692;47.338;8.520;2024-02-16T12:40:42;13.13;;;3.22;;
75112;SDS011;63692;47.338;8.520;2024-02-16T12:43:08;9.75;;;2.97;;
75112;SDS011;63692;47.338;8.520;2024-02-16T12:45:36;7.75;;;2.95;;
75112;SDS011;63692;47.338;8.520;2024-02-16T12:48:02;9.02;;;3.10;;
75112;SDS011;63692;47.338;8.520;2024-02-16T12:50:29;9.15;;;3.53;;
75112;SDS011;63692;47.338;8.520;2024-02-16T12:52:55;7.55;;;2.50;;
75112;SDS011;63692;47.338;8.520;2024-02-16T12:55:22;7.45;;;2.60;;
75112;SDS011;63692;47.338;8.520;2024-02-16T12:57:48;6.85;;;2.40;;
75112;SDS011;63692;47.338;8.520;2024-02-16T13:00:15;7.90;;;2.55;;
75112;SDS011;63692;47.338;8.520;2024-02-16T13:02:41;5.90;;;2.70;;
75112;SDS011;63692;47.338;8.520;2024-02-16T13:05:06;6.80;;;2.40;;
75112;SDS011;63692;47.338;8.520;2024-02-16T13:07:33;11.82;;;2.65;;
75112;SDS011;63692;47.338;8.520;2024-02-16T13:09:59;10.40;;;2.88;;
75112;SDS011;63692;47.338;8.520;2024-02-16T13:12:24;11.15;;;2.63;;
75112;SDS011;63692;47.338;8.520;2024-02-16T13:14:50;11.85;;;2.97;;
75112;SDS011;63692;47.338;8.520;2024-02-16T13:17:15;11.07;;;2.42;;
75112;SDS011;63692;47.338;8.520;2024-02-16T13:19:42;12.07;;;2.65;;
75112;SDS011;63692;47.338;8.520;2024-02-16T13:22:07;9.50;;;2.35;;
75112;SDS011;63692;47.338;8.520;2024-02-16T13:24:33;7.07;;;2.42;;
75112;SDS011;63692;47.338;8.520;2024-02-16T13:26:59;11.07;;;2.30;;
75112;SDS011;63692;47.338;8.520;2024-02-16T13:29:25;6.85;;;2.00;;
75112;SDS011;63692;47.338;8.520;2024-02-16T13:31:51;10.57;;;2.05;;
75112;SDS011;63692;47.338;8.520;2024-02-16T13:34:17;9.40;;;2.22;;
75112;SDS011;63692;47.338;8.520;2024-02-16T13:36:42;7.65;;;1.80;;
75112;SDS011;63692;47.338;8.520;2024-02-16T13:39:08;7.28;;;2.22;;
75112;SDS011;63692;47.338;8.520;2024-02-16T13:41:34;7.40;;;1.98;;
75112;SDS011;63692;47.338;8.520;2024-02-16T13:44:00;8.80;;;2.28;;
75112;SDS011;63692;47.338;8.520;2024-02-16T13:46:26;4.72;;;1.70;;
75112;SDS011;63692;47.338;8.520;2024-02-16T13:48:52;4.32;;;1.50;;
75112;SDS011;63692;47.338;8.520;2024-02-16T13:51:17;7.75;;;2.10;;
75112;SDS011;63692;47.338;8.520;2024-02-16T13:53:44;6.88;;;1.92;;
75112;SDS011;63692;47.338;8.520;2024-02-16T13:56:09;7.13;;;2.00;;
75112;SDS011;63692;47.338;8.520;2024-02-16T13:58:35;6.20;;;1.83;;
75112;SDS011;63692;47.338;8.520;2024-02-16T14:01:02;6.93;;;1.50;;
75112;SDS011;63692;47.338;8.520;2024-02-16T14:03:30;9.60;;;2.20;;
75112;SDS011;63692;47.338;8.520;2024-02-16T14:05:57;5.65;;;1.40;;
75112;SDS011;63692;47.338;8.520;2024-02-16T14:08:24;5.50;;;1.60;;
75112;SDS011;63692;47.338;8.520;2024-02-16T14:10:49;4.50;;;1.35;;
75112;SDS011;63692;47.338;8.520;2024-02-16T14:13:15;8.20;;;1.65;;
75112;SDS011;63692;47.338;8.520;2024-02-16T14:15:41;7.35;;;1.40;;
75112;SDS011;63692;47.338;8.520;2024-02-16T14:18:07;6.85;;;1.90;;
75112;SDS011;63692;47.338;8.520;2024-02-16T14:20:33;6.30;;;1.67;;
75112;SDS011;63692;47.338;8.520;2024-02-16T14:22:58;6.70;;;1.77;;
75112;SDS011;63692;47.338;8.520;2024-02-16T14:25:24;6.57;;;1.70;;
75112;SDS011;63692;47.338;8.520;2024-02-16T14:27:50;7.32;;;1.98;;
75112;SDS011;63692;47.338;8.520;2024-02-16T14:30:16;7.05;;;1.88;;
75112;SDS011;63692;47.338;8.520;2024-02-16T14:32:42;11.13;;;1.80;;
75112;SDS011;63692;47.338;8.520;2024-02-16T14:35:08;10.65;;;2.10;;
75112;SDS011;63692;47.338;8.520;2024-02-16T14:37:34;7.13;;;1.60;;
75112;SDS011;63692;47.338;8.520;2024-02-16T14:40:00;11.00;;;2.60;;
75112;SDS011;63692;47.338;8.520;2024-02-16T14:42:26;6.03;;;1.60;;
75112;SDS011;63692;47.338;8.520;2024-02-16T14:44:53;6.25;;;1.90;;
75112;SDS011;63692;47.338;8.520;2024-02-16T14:47:19;5.97;;;1.98;;
75112;SDS011;63692;47.338;8.520;2024-02-16T14:49:47;5.93;;;1.85;;
75112;SDS011;63692;47.338;8.520;2024-02-16T14:52:12;5.72;;;1.80;;
75112;SDS011;63692;47.338;8.520;2024-02-16T14:54:38;5.43;;;1.73;;
75112;SDS011;63692;47.338;8.520;2024-02-16T14:57:04;6.47;;;1.80;;
75112;SDS011;63692;47.338;8.520;2024-02-16T14:59:30;5.20;;;1.70;;
75112;SDS011;63692;47.338;8.520;2024-02-16T15:01:56;5.55;;;1.98;;
75112;SDS011;63692;47.338;8.520;2024-02-16T15:04:22;5.15;;;1.70;;
75112;SDS011;63692;47.338;8.520;2024-02-16T15:06:48;5.75;;;1.60;;
75112;SDS011;63692;47.338;8.520;2024-02-16T15:09:13;10.63;;;2.28;;
75112;SDS011;63692;47.338;8.520;2024-02-16T15:11:39;4.78;;;1.90;;
75112;SDS011;63692;47.338;8.520;2024-02-16T15:14:05;5.43;;;2.10;;
75112;SDS011;63692;47.338;8.520;2024-02-16T15:19:00;7.38;;;1.83;;
75112;SDS011;63692;47.338;8.520;2024-02-16T15:21:28;5.35;;;2.17;;
75112;SDS011;63692;47.338;8.520;2024-02-16T15:23:53;4.68;;;2.15;;
75112;SDS011;63692;47.338;8.520;2024-02-16T15:26:20;6.55;;;2.47;;
